createdAt,value
2023-03-29T00:02:13.316Z,-4.60
2023-03-29T00:07:23.875Z,-4.69
2023-03-29T00:12:31.523Z,-4.76
2023-03-29T00:17:38.750Z,-4.78
2023-03-29T00:22:46.919Z,-4.71
2023-03-29T00:27:54.001Z,-4.58
2023-03-29T00:33:01.191Z,-4.54
2023-03-29T00:38:08.388Z,-4.57
2023-03-29T00:43:16.952Z,-4.66
2023-03-29T00:48:29.112Z,-4.74
2023-03-29T00:53:39.631Z,-4.80
2023-03-29T00:58:55.086Z,-4.85
2023-03-29T01:04:08.621Z,-4.93
2023-03-29T01:09:17.500Z,-4.99
2023-03-29T01:14:31.168Z,-5.07
2023-03-29T01:19:46.584Z,-5.16
2023-03-29T01:25:06.612Z,-5.24
2023-03-29T01:30:17.519Z,-5.30
2023-03-29T01:35:32.740Z,-5.32
2023-03-29T01:40:40.300Z,-5.31
2023-03-29T01:45:51.730Z,-5.26
2023-03-29T01:51:06.369Z,-5.14
2023-03-29T01:56:19.927Z,-5.01
2023-03-29T02:01:33.190Z,-4.92
2023-03-29T02:06:41.776Z,-4.94
2023-03-29T02:11:49.995Z,-5.02
2023-03-29T02:16:57.508Z,-5.10
2023-03-29T02:22:06.794Z,-5.18
2023-03-29T02:27:14.067Z,-5.28
2023-03-29T02:32:27.511Z,-5.41
2023-03-29T02:37:41.111Z,-5.53
2023-03-29T02:42:50.355Z,-5.65
2023-03-29T02:48:01.465Z,-5.78
2023-03-29T02:53:16.039Z,-5.91
2023-03-29T02:58:26.808Z,-6.03
2023-03-29T03:03:34.311Z,-6.14
2023-03-29T03:08:42.598Z,-6.22
2023-03-29T03:13:51.760Z,-6.25
2023-03-29T03:18:59.153Z,-6.22
2023-03-29T03:24:08.473Z,-6.18
2023-03-29T03:29:16.432Z,-6.12
2023-03-29T03:34:45.119Z,-5.94
2023-03-29T03:39:52.460Z,-5.76
2023-03-29T03:45:00.224Z,-5.66
2023-03-29T03:50:33.642Z,-5.66
2023-03-29T03:55:41.689Z,-5.76
2023-03-29T04:00:53.441Z,-5.96
2023-03-29T04:06:10.043Z,-6.11
2023-03-29T04:11:37.404Z,-6.27
2023-03-29T04:16:45.421Z,-6.41
2023-03-29T04:22:18.199Z,-6.57
2023-03-29T04:27:26.047Z,-6.69
2023-03-29T04:32:34.221Z,-6.78
2023-03-29T04:37:47.035Z,-6.81
2023-03-29T04:42:56.457Z,-6.75
2023-03-29T04:48:04.203Z,-6.60
2023-03-29T04:53:10.066Z,-6.40
2023-03-29T04:58:18.983Z,-6.20
2023-03-29T05:03:27.905Z,-6.04
2023-03-29T05:08:41.239Z,-5.96
2023-03-29T05:14:18.243Z,-5.89
2023-03-29T05:19:26.000Z,-5.81
2023-03-29T05:24:33.452Z,-5.73
2023-03-29T05:29:52.490Z,-5.53
2023-03-29T05:35:11.451Z,-5.05
2023-03-29T05:40:20.029Z,-4.39
2023-03-29T05:45:53.395Z,-3.60
2023-03-29T05:51:03.702Z,-2.73
2023-03-29T05:56:12.323Z,-1.93
2023-03-29T06:01:20.618Z,-1.13
2023-03-29T06:06:48.773Z,-0.26
2023-03-29T06:11:57.716Z,0.56
2023-03-29T06:17:25.241Z,1.38
2023-03-29T06:22:33.389Z,2.06
2023-03-29T06:27:40.904Z,2.45
2023-03-29T06:32:50.656Z,2.71
2023-03-29T06:38:11.402Z,2.88
2023-03-29T06:43:47.983Z,3.00
2023-03-29T06:48:56.351Z,3.04
2023-03-29T06:54:06.243Z,3.22
2023-03-29T06:59:14.782Z,3.57
2023-03-29T07:04:46.292Z,3.92
2023-03-29T07:10:01.914Z,4.22
2023-03-29T07:15:33.308Z,4.68
2023-03-29T07:21:07.941Z,5.19
2023-03-29T07:26:28.541Z,5.78
2023-03-29T07:31:41.103Z,6.67
2023-03-29T07:37:11.211Z,7.57
2023-03-29T07:42:22.654Z,8.45
2023-03-29T07:47:31.826Z,9.10
2023-03-29T07:52:42.373Z,9.56
2023-03-29T07:57:51.529Z,10.14
2023-03-29T08:03:05.843Z,10.66
2023-03-29T08:08:14.406Z,11.22
2023-03-29T08:13:30.825Z,12.13
2023-03-29T08:19:01.226Z,13.11
2023-03-29T08:24:21.486Z,14.01
2023-03-29T08:29:33.431Z,14.78
2023-03-29T08:34:41.235Z,15.48
2023-03-29T08:40:09.183Z,15.97
2023-03-29T08:45:35.616Z,16.43
2023-03-29T08:50:50.157Z,16.86
2023-03-29T08:56:01.931Z,17.29
2023-03-29T09:01:35.182Z,17.71
2023-03-29T09:06:43.557Z,17.77
2023-03-29T09:12:12.079Z,17.79
2023-03-29T09:17:32.173Z,17.58
2023-03-29T09:22:49.932Z,17.30
2023-03-29T09:28:05.782Z,16.87
2023-03-29T09:33:27.273Z,16.29
2023-03-29T09:39:05.010Z,15.23
2023-03-29T09:44:30.234Z,13.74
2023-03-29T09:49:47.217Z,12.19
2023-03-29T09:54:56.099Z,11.64
2023-03-29T10:00:36.939Z,11.34
2023-03-29T10:05:47.322Z,11.06
2023-03-29T10:10:57.729Z,10.82
2023-03-29T10:16:08.326Z,10.68
2023-03-29T10:21:20.318Z,10.53
2023-03-29T10:26:32.952Z,10.37
2023-03-29T10:31:42.794Z,10.27
2023-03-29T10:36:57.684Z,10.19
2023-03-29T10:42:06.327Z,10.05
2023-03-29T10:47:19.762Z,9.78
2023-03-29T10:52:27.934Z,9.28
2023-03-29T10:57:46.280Z,9.16
2023-03-29T11:03:00.557Z,9.21
2023-03-29T11:08:27.961Z,9.13
2023-03-29T11:13:44.393Z,9.15
2023-03-29T11:19:05.195Z,9.06
2023-03-29T11:24:48.904Z,8.98
2023-03-29T11:30:08.224Z,8.92
2023-03-29T11:35:31.475Z,9.03
2023-03-29T11:40:48.313Z,9.04
2023-03-29T11:46:02.712Z,9.10
2023-03-29T11:51:18.213Z,9.14
2023-03-29T11:56:32.480Z,9.10
2023-03-29T12:01:44.857Z,9.11
2023-03-29T12:07:03.051Z,9.25
2023-03-29T12:12:16.334Z,9.32
2023-03-29T12:17:29.796Z,9.33
2023-03-29T12:22:38.575Z,9.36
2023-03-29T12:27:55.033Z,9.51
2023-03-29T12:33:21.883Z,9.55
2023-03-29T12:38:35.858Z,9.64
2023-03-29T12:44:09.556Z,9.70
2023-03-29T12:49:48.517Z,9.71
2023-03-29T12:55:01.579Z,9.78
2023-03-29T13:00:28.204Z,9.89
2023-03-29T13:05:39.429Z,9.89
2023-03-29T13:10:55.894Z,9.86
2023-03-29T13:16:15.929Z,9.80
2023-03-29T13:21:32.328Z,9.75
2023-03-29T13:26:54.360Z,9.70
2023-03-29T13:32:18.139Z,9.60
2023-03-29T13:37:40.416Z,9.48
2023-03-29T13:43:06.240Z,9.36
2023-03-29T13:48:29.502Z,9.28
2023-03-29T13:53:46.340Z,9.12
2023-03-29T13:59:19.025Z,9.09
2023-03-29T14:04:30.724Z,9.16
2023-03-29T14:09:43.736Z,9.18
2023-03-29T14:14:59.198Z,9.22
2023-03-29T14:20:10.464Z,9.31
2023-03-29T14:25:21.391Z,9.34
2023-03-29T14:30:32.124Z,9.27
2023-03-29T14:35:40.565Z,9.16
2023-03-29T14:40:48.554Z,8.98
2023-03-29T14:45:54.552Z,8.87
2023-03-29T14:51:02.773Z,8.80
2023-03-29T14:56:13.907Z,8.70
2023-03-29T15:01:25.346Z,8.72
2023-03-29T15:06:33.381Z,8.77
2023-03-29T15:11:40.012Z,8.78
2023-03-29T15:16:49.476Z,8.76
2023-03-29T15:21:56.835Z,8.76
2023-03-29T15:27:12.436Z,8.82
2023-03-29T15:32:34.961Z,8.89
2023-03-29T15:37:44.587Z,8.96
2023-03-29T15:42:52.274Z,9.00
2023-03-29T15:48:02.075Z,9.04
2023-03-29T15:53:15.026Z,9.04
2023-03-29T15:58:25.953Z,8.96
2023-03-29T16:03:33.319Z,8.90
2023-03-29T16:08:42.072Z,8.86
2023-03-29T16:13:49.447Z,8.86
2023-03-29T16:18:56.926Z,8.90
2023-03-29T16:24:04.569Z,8.90
2023-03-29T16:29:12.513Z,8.86
2023-03-29T16:34:20.337Z,8.80
2023-03-29T16:39:27.828Z,8.73
2023-03-29T16:44:34.972Z,8.64
2023-03-29T16:49:44.341Z,8.52
2023-03-29T16:54:54.353Z,8.42
2023-03-29T17:00:01.516Z,8.33
2023-03-29T17:05:11.195Z,8.25
2023-03-29T17:10:19.040Z,8.16
2023-03-29T17:15:26.580Z,8.09
2023-03-29T17:20:33.770Z,8.02
2023-03-29T17:25:40.994Z,7.95
2023-03-29T17:30:49.058Z,7.88
2023-03-29T17:35:57.811Z,7.81
2023-03-29T17:41:08.069Z,7.74
2023-03-29T17:46:23.463Z,7.69
2023-03-29T17:51:31.144Z,7.65
2023-03-29T17:56:39.695Z,7.59
2023-03-29T18:01:46.971Z,7.54
2023-03-29T18:06:55.127Z,7.50
2023-03-29T18:12:02.344Z,7.47
2023-03-29T18:17:09.838Z,7.43
2023-03-29T18:22:17.974Z,7.39
2023-03-29T18:27:23.481Z,7.37
2023-03-29T18:32:30.598Z,7.36
2023-03-29T18:37:38.025Z,7.34
2023-03-29T18:42:45.154Z,7.31
2023-03-29T18:47:52.511Z,7.28
2023-03-29T18:53:02.417Z,7.24
2023-03-29T18:58:09.676Z,7.20
2023-03-29T19:03:16.909Z,7.15
2023-03-29T19:08:25.845Z,7.10
2023-03-29T19:13:33.084Z,7.04
2023-03-29T19:18:40.270Z,6.99
2023-03-29T19:23:47.530Z,6.94
2023-03-29T19:28:54.635Z,6.92
2023-03-29T19:34:19.791Z,6.89
2023-03-29T19:39:29.570Z,6.87
2023-03-29T19:44:38.495Z,6.86
2023-03-29T19:49:47.095Z,6.85
2023-03-29T19:54:54.413Z,6.86
2023-03-29T20:00:02.214Z,6.86
2023-03-29T20:05:21.882Z,6.86
2023-03-29T20:10:29.339Z,6.84
2023-03-29T20:15:36.518Z,6.81
2023-03-29T20:20:44.758Z,6.80
2023-03-29T20:25:52.729Z,6.78
2023-03-29T20:30:58.302Z,6.76
2023-03-29T20:36:06.819Z,6.74
2023-03-29T20:41:14.339Z,6.72
2023-03-29T20:46:24.089Z,6.71
2023-03-29T20:51:32.225Z,6.70
2023-03-29T20:56:42.635Z,6.68
2023-03-29T21:01:50.528Z,6.65
2023-03-29T21:07:00.972Z,6.63
2023-03-29T21:12:10.479Z,6.60
2023-03-29T21:17:17.600Z,6.58
2023-03-29T21:22:24.804Z,6.56
2023-03-29T21:27:31.915Z,6.52
2023-03-29T21:32:39.186Z,6.49
2023-03-29T21:37:46.485Z,6.46
2023-03-29T21:42:53.608Z,6.42
2023-03-29T21:48:01.013Z,6.39
2023-03-29T21:53:08.616Z,6.37
2023-03-29T21:58:16.190Z,6.35
2023-03-29T22:03:23.412Z,6.34
2023-03-29T22:08:30.909Z,6.33
2023-03-29T22:13:38.946Z,6.33
2023-03-29T22:18:44.756Z,6.32
2023-03-29T22:23:57.071Z,6.32
2023-03-29T22:29:04.693Z,6.31
2023-03-29T22:34:13.036Z,6.31
2023-03-29T22:39:20.162Z,6.31
2023-03-29T22:44:27.293Z,6.30
2023-03-29T22:49:34.382Z,6.29
2023-03-29T22:54:41.439Z,6.28
2023-03-29T22:59:48.538Z,6.25
2023-03-29T23:04:56.948Z,6.21
2023-03-29T23:10:04.234Z,6.17
2023-03-29T23:15:13.876Z,6.14
2023-03-29T23:20:21.381Z,6.11
2023-03-29T23:25:30.190Z,6.07
2023-03-29T23:30:38.802Z,6.02
2023-03-29T23:35:46.828Z,5.97
2023-03-29T23:41:01.013Z,5.94
2023-03-29T23:46:10.813Z,5.90
2023-03-29T23:51:23.262Z,5.88
2023-03-29T23:56:32.646Z,5.85
